KSBY/SBY METAR and TAF weather

Enter ICAO airport designator
Station Type Date Time Source
KSBY METAR 2019/02/16 02:54 UTC NOAA

KSBY 160254Z 23006KT 10SM BKN120 15/08 A2972 RMK AO2 SLP066 T01500083 53004


Station Type Date Time Source
KSBY Decoded METAR 2019/02/16 02:54 UTC NOAA

SALISBURY-WICOMICO CTY REG, MD, United States (KSBY) 38-20N 075-30W 19M
Feb 15, 2019 - 09:54 PM EST / 2019.02.16 0254 UTC
Wind: from the SW (230 degrees) at 7 MPH (6 KT):0
Visibility: 10 mile(s):0
Sky conditions: mostly cloudy
Temperature: 59.0 F (15.0 C)
Dew Point: 46.9 F (8.3 C)
Relative Humidity: 64%
Pressure (altimeter): 29.72 in. Hg (1006 hPa)
Pressure tendency: 0.01 inches (0.4 hPa) higher than three hours ago
ob: KSBY 160254Z 23006KT 10SM BKN120 15/08 A2972 RMK AO2 SLP066 T01500083 53004
cycle: 3

Station Type Date Time Source
KSBY TAF 2019/02/15 18:48 UTC NOAA

TAF KSBY 151746Z 1518/1618 20015G25KT P6SM BKN100
FM152200 21007KT P6SM OVC080
FM160600 35009KT P6SM OVC060
FM161300 36011KT 5SM -RASN OVC008


Example: see airport list